RYR535 EIDW-EGNX
Flight info
| Callsign | RYR535 |
|---|---|
| Flight time | 0h 39m |
| Altitude | 27000 |
| Route | DEXEN2J DEXEN UY124 DOLOP |
| Aircraft | B38M/M-SDE1FGHILORVWXY/HB1 |
Departure
| Time | 2026-05-07 18:07 |
|---|---|
| Airport | Dublin Airport (EIDW) |
Arrival
| Time | 2026-05-07 18:47 |
|---|---|
| Airport | East Midlands Airport (EGNX) |
| Time | Latitude | Longitude | Altitude | Speed | Heading |
|---|---|---|---|---|---|
| 2026-05-07 17:48 | 53.43003 | -6.24878 | 213 ft | 0 kts | 5° |
| 2026-05-07 17:59 | 53.42992 | -6.24880 | 216 ft | 4 kts | 1° |
| 2026-05-07 17:59 | 53.42966 | -6.24875 | 213 ft | 4 kts | 340° |
| 2026-05-07 17:59 | 53.42946 | -6.24852 | 216 ft | 4 kts | 294° |
| 2026-05-07 18:00 | 53.42943 | -6.24836 | 213 ft | 1 kts | 275° |
| 2026-05-07 18:02 | 53.42944 | -6.24853 | 213 ft | 3 kts | 275° |
| 2026-05-07 18:02 | 53.42949 | -6.24932 | 215 ft | 11 kts | 275° |
| 2026-05-07 18:03 | 53.42957 | -6.25092 | 216 ft | 16 kts | 274° |
| 2026-05-07 18:03 | 53.42978 | -6.25276 | 217 ft | 15 kts | 320° |
| 2026-05-07 18:03 | 53.43045 | -6.25411 | 217 ft | 16 kts | 314° |
| 2026-05-07 18:03 | 53.43150 | -6.25501 | 216 ft | 18 kts | 338° |
| 2026-05-07 18:04 | 53.43274 | -6.25592 | 213 ft | 20 kts | 337° |
| 2026-05-07 18:04 | 53.43377 | -6.25638 | 217 ft | 16 kts | 25° |
| 2026-05-07 18:04 | 53.43402 | -6.25464 | 213 ft | 17 kts | 95° |
| 2026-05-07 18:04 | 53.43390 | -6.25251 | 216 ft | 19 kts | 95° |
| 2026-05-07 18:05 | 53.43377 | -6.25019 | 213 ft | 21 kts | 94° |
| 2026-05-07 18:05 | 53.43363 | -6.24766 | 220 ft | 23 kts | 94° |
| 2026-05-07 18:05 | 53.43363 | -6.24599 | 220 ft | 9 kts | 64° |
| 2026-05-07 18:05 | 53.43424 | -6.24557 | 214 ft | 10 kts | 8° |
| 2026-05-07 18:06 | 53.43498 | -6.24550 | 219 ft | 11 kts | 345° |
| 2026-05-07 18:06 | 53.43529 | -6.24652 | 218 ft | 10 kts | 274° |
| 2026-05-07 18:06 | 53.43534 | -6.24762 | 219 ft | 18 kts | 275° |
| 2026-05-07 18:06 | 53.43571 | -6.25434 | 212 ft | 97 kts | 276° |
| 2026-05-07 18:07 | 53.43650 | -6.26938 | 246 ft | 154 kts | 272° |
| 2026-05-07 18:07 | 53.43763 | -6.28788 | 837 ft | 159 kts | 273° |
| 2026-05-07 18:07 | 53.43951 | -6.30621 | 1630 ft | 166 kts | 289° |
| 2026-05-07 18:07 | 53.44647 | -6.32179 | 2440 ft | 173 kts | 313° |
| 2026-05-07 18:08 | 53.45662 | -6.33471 | 2984 ft | 193 kts | 321° |
| 2026-05-07 18:08 | 53.46727 | -6.35030 | 3431 ft | 215 kts | 301° |
| 2026-05-07 18:08 | 53.47537 | -6.37177 | 4244 ft | 221 kts | 299° |
| 2026-05-07 18:08 | 53.48422 | -6.39405 | 4914 ft | 239 kts | 300° |
| 2026-05-07 18:09 | 53.49398 | -6.41802 | 5548 ft | 257 kts | 301° |
| 2026-05-07 18:09 | 53.50432 | -6.44327 | 6356 ft | 266 kts | 298° |
| 2026-05-07 18:09 | 53.51134 | -6.47160 | 7292 ft | 263 kts | 277° |
| 2026-05-07 18:09 | 53.51022 | -6.50182 | 8224 ft | 261 kts | 250° |
| 2026-05-07 18:10 | 53.50115 | -6.52782 | 9041 ft | 268 kts | 226° |
| 2026-05-07 18:10 | 53.48555 | -6.54558 | 9974 ft | 273 kts | 201° |
| 2026-05-07 18:10 | 53.46655 | -6.55023 | 10521 ft | 293 kts | 176° |
| 2026-05-07 18:10 | 53.44694 | -6.53852 | 11081 ft | 312 kts | 147° |
| 2026-05-07 18:11 | 53.43244 | -6.51077 | 11789 ft | 326 kts | 121° |
| 2026-05-07 18:11 | 53.42490 | -6.48824 | 12314 ft | 329 kts | 124° |
| 2026-05-07 18:11 | 53.40867 | -6.44500 | 13451 ft | 334 kts | 125° |
| 2026-05-07 18:11 | 53.39619 | -6.41186 | 14207 ft | 339 kts | 125° |
| 2026-05-07 18:12 | 53.38355 | -6.37829 | 14978 ft | 342 kts | 125° |
| 2026-05-07 18:12 | 53.37297 | -6.34222 | 15736 ft | 351 kts | 108° |
| 2026-05-07 18:12 | 53.36831 | -6.30185 | 16488 ft | 356 kts | 103° |
| 2026-05-07 18:12 | 53.36376 | -6.26069 | 17183 ft | 361 kts | 103° |
| 2026-05-07 18:13 | 53.35924 | -6.21906 | 17898 ft | 365 kts | 103° |
| 2026-05-07 18:13 | 53.35470 | -6.17693 | 18534 ft | 370 kts | 103° |
| 2026-05-07 18:13 | 53.35014 | -6.13436 | 19157 ft | 372 kts | 103° |
| 2026-05-07 18:13 | 53.34553 | -6.09149 | 19781 ft | 375 kts | 103° |
| 2026-05-07 18:14 | 53.34088 | -6.04834 | 20370 ft | 378 kts | 103° |
| 2026-05-07 18:14 | 53.33618 | -6.00483 | 20956 ft | 382 kts | 103° |
| 2026-05-07 18:14 | 53.33142 | -5.96099 | 21542 ft | 385 kts | 103° |
| 2026-05-07 18:14 | 53.32667 | -5.91734 | 22110 ft | 388 kts | 103° |
| 2026-05-07 18:15 | 53.32179 | -5.87261 | 22682 ft | 391 kts | 103° |
| 2026-05-07 18:15 | 53.31687 | -5.82772 | 23253 ft | 394 kts | 103° |
| 2026-05-07 18:15 | 53.31187 | -5.78233 | 23772 ft | 398 kts | 103° |
| 2026-05-07 18:15 | 53.30684 | -5.73678 | 24270 ft | 400 kts | 103° |
| 2026-05-07 18:16 | 53.30176 | -5.69092 | 24765 ft | 402 kts | 103° |
| 2026-05-07 18:16 | 53.29663 | -5.64479 | 25265 ft | 404 kts | 103° |
| 2026-05-07 18:16 | 53.29148 | -5.59867 | 25872 ft | 403 kts | 104° |
| 2026-05-07 18:16 | 53.28631 | -5.55254 | 26497 ft | 401 kts | 104° |
| 2026-05-07 18:17 | 53.28125 | -5.50660 | 26895 ft | 405 kts | 101° |
| 2026-05-07 18:17 | 53.27937 | -5.45982 | 26978 ft | 403 kts | 95° |
| 2026-05-07 18:17 | 53.27850 | -5.42880 | 26974 ft | 402 kts | 96° |
| 2026-05-07 18:17 | 53.27711 | -5.38222 | 26961 ft | 402 kts | 96° |
| 2026-05-07 18:18 | 53.27529 | -5.32038 | 26966 ft | 402 kts | 96° |
| 2026-05-07 18:18 | 53.27436 | -5.28888 | 26965 ft | 402 kts | 96° |
| 2026-05-07 18:18 | 53.27297 | -5.24222 | 26966 ft | 402 kts | 96° |
| 2026-05-07 18:18 | 53.27157 | -5.19566 | 26966 ft | 402 kts | 96° |
| 2026-05-07 18:19 | 53.27008 | -5.14912 | 26970 ft | 401 kts | 96° |
| 2026-05-07 18:19 | 53.26859 | -5.10311 | 26963 ft | 401 kts | 96° |
| 2026-05-07 18:19 | 53.26705 | -5.05658 | 26973 ft | 401 kts | 96° |
| 2026-05-07 18:19 | 53.26551 | -5.01026 | 26975 ft | 401 kts | 96° |
| 2026-05-07 18:20 | 53.26395 | -4.96367 | 26975 ft | 401 kts | 96° |
| 2026-05-07 18:20 | 53.26236 | -4.91706 | 26979 ft | 401 kts | 96° |
| 2026-05-07 18:20 | 53.26076 | -4.87054 | 26978 ft | 401 kts | 96° |
| 2026-05-07 18:20 | 53.25914 | -4.82404 | 26978 ft | 401 kts | 96° |
| 2026-05-07 18:21 | 53.25751 | -4.77756 | 26978 ft | 401 kts | 96° |
| 2026-05-07 18:21 | 53.25592 | -4.73102 | 26978 ft | 401 kts | 96° |
| 2026-05-07 18:21 | 53.25438 | -4.68441 | 26995 ft | 401 kts | 96° |
| 2026-05-07 18:21 | 53.25282 | -4.63795 | 26995 ft | 401 kts | 96° |
| 2026-05-07 18:22 | 53.25124 | -4.59143 | 26984 ft | 401 kts | 96° |
| 2026-05-07 18:22 | 53.25018 | -4.56066 | 26987 ft | 401 kts | 96° |
| 2026-05-07 18:22 | 53.24802 | -4.49849 | 26993 ft | 401 kts | 96° |
| 2026-05-07 18:22 | 53.24638 | -4.45203 | 26994 ft | 401 kts | 96° |
| 2026-05-07 18:23 | 53.24473 | -4.40559 | 26997 ft | 401 kts | 96° |
| 2026-05-07 18:23 | 53.24306 | -4.35914 | 26988 ft | 401 kts | 96° |
| 2026-05-07 18:23 | 53.24137 | -4.31276 | 26990 ft | 401 kts | 96° |
| 2026-05-07 18:23 | 53.23967 | -4.26635 | 26992 ft | 400 kts | 96° |
| 2026-05-07 18:24 | 53.23794 | -4.21993 | 26995 ft | 400 kts | 96° |
| 2026-05-07 18:24 | 53.23620 | -4.17348 | 26991 ft | 400 kts | 96° |
| 2026-05-07 18:24 | 53.23446 | -4.12769 | 26987 ft | 400 kts | 96° |
| 2026-05-07 18:24 | 53.23269 | -4.08131 | 26978 ft | 400 kts | 96° |
| 2026-05-07 18:25 | 53.23090 | -4.03501 | 26990 ft | 400 kts | 96° |
| 2026-05-07 18:25 | 53.22908 | -3.98875 | 26986 ft | 400 kts | 96° |
| 2026-05-07 18:25 | 53.22720 | -3.94246 | 26991 ft | 399 kts | 96° |
| 2026-05-07 18:25 | 53.22531 | -3.89620 | 26991 ft | 399 kts | 96° |
| 2026-05-07 18:26 | 53.22341 | -3.84995 | 26991 ft | 399 kts | 96° |
| 2026-05-07 18:26 | 53.22149 | -3.80379 | 26998 ft | 399 kts | 96° |
| 2026-05-07 18:26 | 53.21955 | -3.75747 | 26993 ft | 399 kts | 96° |
| 2026-05-07 18:26 | 53.21760 | -3.71127 | 26990 ft | 399 kts | 96° |
| 2026-05-07 18:27 | 53.21562 | -3.66497 | 26991 ft | 399 kts | 96° |
| 2026-05-07 18:27 | 53.21362 | -3.61881 | 26636 ft | 400 kts | 96° |
| 2026-05-07 18:27 | 53.21162 | -3.57292 | 26101 ft | 400 kts | 96° |
| 2026-05-07 18:27 | 53.20960 | -3.52712 | 25834 ft | 393 kts | 96° |
| 2026-05-07 18:28 | 53.20759 | -3.48196 | 25556 ft | 387 kts | 96° |
| 2026-05-07 18:28 | 53.20559 | -3.43754 | 25278 ft | 384 kts | 96° |
| 2026-05-07 18:28 | 53.20355 | -3.39236 | 25081 ft | 393 kts | 96° |
| 2026-05-07 18:28 | 53.20145 | -3.34647 | 24761 ft | 398 kts | 96° |
| 2026-05-07 18:29 | 53.19933 | -3.30042 | 24318 ft | 397 kts | 96° |
| 2026-05-07 18:29 | 53.19720 | -3.25452 | 23873 ft | 396 kts | 96° |
| 2026-05-07 18:29 | 53.19410 | -3.20970 | 23378 ft | 393 kts | 105° |
| 2026-05-07 18:29 | 53.18375 | -3.16794 | 22792 ft | 388 kts | 123° |
| 2026-05-07 18:30 | 53.16980 | -3.12970 | 22426 ft | 383 kts | 123° |
| 2026-05-07 18:30 | 53.15598 | -3.09210 | 22044 ft | 379 kts | 124° |
| 2026-05-07 18:30 | 53.14212 | -3.05499 | 21633 ft | 376 kts | 124° |
| 2026-05-07 18:30 | 53.12825 | -3.01824 | 21228 ft | 372 kts | 124° |
| 2026-05-07 18:31 | 53.11446 | -2.98193 | 20841 ft | 369 kts | 124° |
| 2026-05-07 18:31 | 53.10079 | -2.94601 | 20455 ft | 366 kts | 124° |
| 2026-05-07 18:31 | 53.08719 | -2.91030 | 20075 ft | 363 kts | 124° |
| 2026-05-07 18:31 | 53.07727 | -2.87197 | 19789 ft | 363 kts | 104° |
| 2026-05-07 18:32 | 53.07328 | -2.83023 | 19565 ft | 367 kts | 100° |
| 2026-05-07 18:32 | 53.06957 | -2.78833 | 19322 ft | 366 kts | 100° |
| 2026-05-07 18:32 | 53.06601 | -2.74639 | 19066 ft | 365 kts | 100° |
| 2026-05-07 18:32 | 53.06256 | -2.70469 | 18786 ft | 363 kts | 99° |
| 2026-05-07 18:33 | 53.05916 | -2.66308 | 18530 ft | 362 kts | 99° |
| 2026-05-07 18:33 | 53.05580 | -2.62173 | 18261 ft | 360 kts | 99° |
| 2026-05-07 18:33 | 53.05245 | -2.58056 | 17969 ft | 359 kts | 99° |
| 2026-05-07 18:33 | 53.04911 | -2.53965 | 17688 ft | 357 kts | 100° |
| 2026-05-07 18:34 | 53.04588 | -2.50032 | 17436 ft | 355 kts | 100° |
| 2026-05-07 18:34 | 53.04247 | -2.45883 | 17175 ft | 353 kts | 100° |
| 2026-05-07 18:34 | 53.03913 | -2.41848 | 16922 ft | 351 kts | 100° |
| 2026-05-07 18:34 | 53.03580 | -2.37839 | 16667 ft | 350 kts | 100° |
| 2026-05-07 18:35 | 53.03247 | -2.33840 | 16411 ft | 348 kts | 100° |
| 2026-05-07 18:35 | 53.02988 | -2.29846 | 16121 ft | 349 kts | 91° |
| 2026-05-07 18:35 | 53.03141 | -2.25832 | 15878 ft | 348 kts | 88° |
| 2026-05-07 18:35 | 53.03306 | -2.21829 | 15645 ft | 347 kts | 88° |
| 2026-05-07 18:36 | 53.03466 | -2.17842 | 15398 ft | 346 kts | 88° |
| 2026-05-07 18:36 | 53.03625 | -2.13864 | 15139 ft | 344 kts | 88° |
| 2026-05-07 18:36 | 53.03780 | -2.09967 | 14894 ft | 340 kts | 88° |
| 2026-05-07 18:36 | 53.03936 | -2.05983 | 14642 ft | 341 kts | 88° |
| 2026-05-07 18:37 | 53.04087 | -2.02104 | 14390 ft | 340 kts | 89° |
| 2026-05-07 18:37 | 53.04238 | -1.98188 | 14143 ft | 338 kts | 89° |
| 2026-05-07 18:37 | 53.04139 | -1.94336 | 13800 ft | 330 kts | 100° |
| 2026-05-07 18:37 | 53.03877 | -1.90561 | 13166 ft | 329 kts | 99° |
| 2026-05-07 18:38 | 53.03648 | -1.86780 | 12435 ft | 327 kts | 98° |
| 2026-05-07 18:38 | 53.03433 | -1.83031 | 11838 ft | 323 kts | 98° |
| 2026-05-07 18:38 | 53.03230 | -1.79362 | 11316 ft | 317 kts | 98° |
| 2026-05-07 18:38 | 53.03035 | -1.75756 | 10824 ft | 310 kts | 97° |
| 2026-05-07 18:39 | 53.02847 | -1.72260 | 10346 ft | 305 kts | 97° |
| 2026-05-07 18:39 | 53.02659 | -1.68767 | 9860 ft | 302 kts | 97° |
| 2026-05-07 18:39 | 53.02471 | -1.65270 | 9319 ft | 299 kts | 97° |
| 2026-05-07 18:39 | 53.02286 | -1.61841 | 8792 ft | 296 kts | 97° |
| 2026-05-07 18:40 | 53.02059 | -1.58524 | 8262 ft | 290 kts | 106° |
| 2026-05-07 18:40 | 53.01223 | -1.55572 | 7747 ft | 279 kts | 132° |
| 2026-05-07 18:40 | 52.99750 | -1.53631 | 7262 ft | 267 kts | 159° |
| 2026-05-07 18:40 | 52.97974 | -1.53057 | 6790 ft | 258 kts | 185° |
| 2026-05-07 18:41 | 52.96297 | -1.53926 | 6330 ft | 253 kts | 212° |
| 2026-05-07 18:41 | 52.94920 | -1.55697 | 5867 ft | 249 kts | 220° |
| 2026-05-07 18:41 | 52.93615 | -1.57572 | 5396 ft | 247 kts | 220° |
| 2026-05-07 18:41 | 52.92348 | -1.59407 | 5001 ft | 236 kts | 220° |
| 2026-05-07 18:42 | 52.90979 | -1.60733 | 4519 ft | 225 kts | 195° |
| 2026-05-07 18:42 | 52.89455 | -1.61067 | 4063 ft | 218 kts | 182° |
| 2026-05-07 18:42 | 52.87959 | -1.61093 | 3597 ft | 212 kts | 180° |
| 2026-05-07 18:42 | 52.86497 | -1.61102 | 3139 ft | 208 kts | 180° |
| 2026-05-07 18:43 | 52.85066 | -1.61012 | 2653 ft | 204 kts | 167° |
| 2026-05-07 18:43 | 52.83844 | -1.59933 | 2222 ft | 201 kts | 141° |
| 2026-05-07 18:43 | 52.83072 | -1.58089 | 2064 ft | 192 kts | 114° |
| 2026-05-07 18:43 | 52.82751 | -1.56029 | 2034 ft | 182 kts | 100° |
| 2026-05-07 18:44 | 52.82694 | -1.53940 | 2034 ft | 182 kts | 91° |
| 2026-05-07 18:44 | 52.82743 | -1.51846 | 2020 ft | 180 kts | 91° |
| 2026-05-07 18:44 | 52.82786 | -1.49870 | 1960 ft | 163 kts | 91° |
| 2026-05-07 18:44 | 52.82820 | -1.48011 | 1885 ft | 162 kts | 91° |
| 2026-05-07 18:45 | 52.82854 | -1.46181 | 1682 ft | 154 kts | 91° |
| 2026-05-07 18:45 | 52.82884 | -1.44495 | 1504 ft | 143 kts | 91° |
| 2026-05-07 18:45 | 52.82914 | -1.42887 | 1324 ft | 139 kts | 91° |
| 2026-05-07 18:45 | 52.82943 | -1.41291 | 1138 ft | 138 kts | 91° |
| 2026-05-07 18:46 | 52.82972 | -1.39712 | 947 ft | 137 kts | 91° |
| 2026-05-07 18:46 | 52.83000 | -1.38151 | 757 ft | 134 kts | 90° |
| 2026-05-07 18:46 | 52.83031 | -1.36612 | 591 ft | 134 kts | 90° |
| 2026-05-07 18:46 | 52.83065 | -1.35063 | 380 ft | 134 kts | 91° |
| 2026-05-07 18:47 | 52.83084 | -1.33593 | 311 ft | 110 kts | 88° |
| 2026-05-07 18:47 | 52.83101 | -1.32716 | 303 ft | 49 kts | 88° |
| 2026-05-07 18:47 | 52.83113 | -1.32134 | 307 ft | 46 kts | 88° |
| 2026-05-07 18:47 | 52.83120 | -1.31742 | 314 ft | 27 kts | 88° |
| 2026-05-07 18:48 | 52.83125 | -1.31469 | 310 ft | 20 kts | 88° |
| 2026-05-07 18:48 | 52.83074 | -1.31320 | 307 ft | 18 kts | 169° |
| 2026-05-07 18:48 | 52.82966 | -1.31362 | 305 ft | 17 kts | 241° |
| 2026-05-07 18:48 | 52.82953 | -1.31567 | 303 ft | 19 kts | 269° |
| 2026-05-07 18:49 | 52.82949 | -1.31802 | 303 ft | 22 kts | 269° |
| 2026-05-07 18:49 | 52.82945 | -1.32066 | 303 ft | 24 kts | 269° |
| 2026-05-07 18:49 | 52.82939 | -1.32345 | 303 ft | 20 kts | 269° |
| 2026-05-07 18:49 | 52.82935 | -1.32589 | 303 ft | 23 kts | 269° |
| 2026-05-07 18:50 | 52.82931 | -1.32785 | 304 ft | 9 kts | 268° |
| 2026-05-07 18:50 | 52.82884 | -1.32858 | 303 ft | 12 kts | 182° |
| 2026-05-07 18:50 | 52.82804 | -1.32888 | 305 ft | 12 kts | 234° |
| 2026-05-07 18:50 | 52.82760 | -1.32936 | 303 ft | 7 kts | 182° |
| 2026-05-07 18:51 | 52.82732 | -1.32935 | 305 ft | 2 kts | 177° |
| 2026-05-07 18:51 | 52.82729 | -1.32935 | 306 ft | 0 kts | 178° |
| 2026-05-07 19:04 | 52.82730 | -1.32935 | 303 ft | 0 kts | 178° |